Time;durP1;ratioP1;P1;durP2;ratioP2;P2;SDS_P1;SDS_P2;PMS_P1;PMS_P2;Temp;Humidity;BMP_temperature;BMP_pressure;BME280_temperature;BME280_humidity;BME280_pressure;Samples;Min_cycle;Max_cycle;Signal;HPM_P1;HPM_P2
2021/12/16 00:08:38;;;;;;;3.45;1.90;;;12.00;49.80;;;;;;5035160;28;20257;-49
2021/12/16 00:33:15;;;;;;;3.47;2.05;;;12.00;49.60;;;;;;5020394;28;20176;-48
2021/12/16 00:35:49;;;;;;;1.48;0.95;;;12.00;49.00;;;;;;5034857;28;20512;-48
2021/12/16 00:38:18;;;;;;;1.92;1.45;;;11.90;49.70;;;;;;5017721;28;20190;-48
2021/12/16 00:40:46;;;;;;;2.70;1.67;;;11.80;49.80;;;;;;5034714;28;20194;-48
2021/12/16 00:54:11;;;;;;;3.08;1.52;;;12.00;49.60;;;;;;5034937;28;20220;-49
2021/12/16 00:56:53;;;;;;;2.60;1.52;;;11.90;49.50;;;;;;5034485;28;20174;-48
2021/12/16 00:59:23;;;;;;;5.55;2.80;;;12.00;49.40;;;;;;5018343;28;20622;-48
2021/12/16 01:02:08;;;;;;;2.38;1.42;;;12.00;49.40;;;;;;5017733;28;20170;-48
2021/12/16 01:33:29;;;;;;;3.33;1.80;;;12.00;49.10;;;;;;5020219;28;20595;-49
2021/12/16 01:41:02;;;;;;;2.85;1.65;;;12.20;49.20;;;;;;5038108;28;20170;-49
2021/12/16 01:46:35;;;;;;;2.75;2.05;;;12.20;49.00;;;;;;5042308;28;20228;-49
2021/12/16 01:49:17;;;;;;;2.47;1.90;;;12.20;48.90;;;;;;5057216;28;20554;-48
2021/12/16 01:52:02;;;;;;;2.17;1.83;;;12.20;48.80;;;;;;5056736;28;20180;-48
2021/12/16 01:54:52;;;;;;;2.30;1.60;;;12.20;48.80;;;;;;5056784;28;20494;-48
2021/12/16 01:57:33;;;;;;;3.38;2.28;;;12.20;48.80;;;;;;5057414;28;20189;-49
2021/12/16 02:00:08;;;;;;;2.25;1.35;;;12.20;48.80;;;;;;5057556;28;20177;-48
2021/12/16 02:02:44;;;;;;;2.65;1.55;;;12.20;48.80;;;;;;5056715;28;20179;-49
2021/12/16 02:08:22;;;;;;;6.13;2.40;;;12.20;48.60;;;;;;5057610;28;20265;-49
2021/12/16 02:35:59;;;;;;;7.07;2.67;;;12.10;48.80;;;;;;5015584;28;20651;-48
2021/12/16 02:38:32;;;;;;;3.97;1.50;;;12.10;48.90;;;;;;5000651;28;20329;-49
2021/12/16 02:40:59;;;;;;;2.70;2.15;;;12.10;48.60;;;;;;4983369;28;20175;-48
2021/12/16 02:48:45;;;;;;;3.60;2.15;;;12.00;48.60;;;;;;5050500;28;20201;-48
2021/12/16 02:51:23;;;;;;;2.40;1.50;;;12.10;48.90;;;;;;5055671;28;20602;-49
2021/12/16 02:53:54;;;;;;;1.90;1.63;;;12.10;48.80;;;;;;5056543;28;20166;-49
2021/12/16 02:56:22;;;;;;;2.72;1.88;;;12.10;48.80;;;;;;5056653;28;20495;-49
2021/12/16 02:58:53;;;;;;;4.47;1.85;;;12.10;48.80;;;;;;5055504;28;20204;-48
2021/12/16 03:01:33;;;;;;;2.90;1.92;;;12.10;48.60;;;;;;5055841;28;20499;-49
2021/12/16 03:04:03;;;;;;;5.30;1.95;;;12.10;48.60;;;;;;5055366;28;20185;-49
2021/12/16 03:06:32;;;;;;;3.35;1.40;;;12.10;48.70;;;;;;5055285;28;20602;-49
2021/12/16 03:09:00;;;;;;;4.43;2.55;;;12.10;48.80;;;;;;5055256;28;20521;-48
2021/12/16 03:11:44;;;;;;;2.05;1.27;;;12.10;48.70;;;;;;5039016;28;20166;-49
2021/12/16 03:17:23;;;;;;;3.25;1.95;;;12.10;48.80;;;;;;5055054;28;20373;-48
2021/12/16 03:19:56;;;;;;;3.03;1.83;;;12.10;48.90;;;;;;5052773;28;20169;-49
2021/12/16 03:22:45;;;;;;;1.90;1.70;;;12.10;48.80;;;;;;5054921;28;20197;-49
2021/12/16 03:33:44;;;;;;;4.75;2.97;;;12.00;49.00;;;;;;5055631;28;20244;-49
2021/12/16 03:36:24;;;;;;;6.40;3.25;;;12.00;49.00;;;;;;5054817;28;20235;-48
2021/12/16 03:39:06;;;;;;;3.58;2.40;;;12.00;49.00;;;;;;5054845;28;20579;-48
2021/12/16 03:41:34;;;;;;;3.70;2.50;;;11.90;49.30;;;;;;5054944;28;20226;-48
2021/12/16 03:44:08;;;;;;;8.10;3.17;;;12.00;49.20;;;;;;5055437;28;20227;-48
2021/12/16 03:46:47;;;;;;;5.47;2.95;;;12.00;49.40;;;;;;5054370;28;20217;-48
2021/12/16 03:49:22;;;;;;;5.35;4.28;;;11.90;49.50;;;;;;5055404;28;20158;-48
2021/12/16 03:51:58;;;;;;;5.25;3.60;;;11.80;49.70;;;;;;5054781;28;20578;-49
2021/12/16 03:54:27;;;;;;;5.82;4.28;;;11.90;49.70;;;;;;5038781;28;20594;-48
2021/12/16 03:56:56;;;;;;;6.10;2.95;;;11.90;49.60;;;;;;5055161;28;20180;-48
2021/12/16 03:59:27;;;;;;;4.50;2.83;;;11.90;49.70;;;;;;5054476;28;20224;-48
2021/12/16 04:01:57;;;;;;;8.23;3.60;;;11.90;49.80;;;;;;5055629;28;20176;-48
2021/12/16 04:04:25;;;;;;;5.18;2.38;;;11.90;49.90;;;;;;5054250;28;20166;-48
2021/12/16 04:06:53;;;;;;;5.10;2.85;;;11.90;49.90;;;;;;5055021;28;20498;-49
2021/12/16 04:09:20;;;;;;;6.22;2.97;;;11.90;50.50;;;;;;5054382;28;20183;-49
2021/12/16 04:12:02;;;;;;;4.35;2.53;;;11.90;50.00;;;;;;5054148;28;20686;-49
2021/12/16 04:14:31;;;;;;;4.90;4.40;;;11.90;50.00;;;;;;5039346;28;20640;-49
2021/12/16 04:17:02;;;;;;;7.75;2.75;;;11.90;50.00;;;;;;5054171;28;20166;-49
2021/12/16 04:19:33;;;;;;;7.70;3.33;;;11.80;50.40;;;;;;5055067;28;20170;-49
2021/12/16 04:22:11;;;;;;;4.82;3.47;;;11.80;50.40;;;;;;5053992;28;20165;-50
2021/12/16 04:24:39;;;;;;;8.10;3.88;;;11.80;50.40;;;;;;5054992;28;20177;-49
2021/12/16 04:27:09;;;;;;;5.05;2.60;;;11.80;50.60;;;;;;5037664;28;20178;-49
2021/12/16 04:29:38;;;;;;;6.97;5.10;;;11.80;50.90;;;;;;5037587;28;20248;-50
2021/12/16 04:32:06;;;;;;;6.20;3.55;;;11.80;50.90;;;;;;5053844;28;20541;-49
2021/12/16 04:34:35;;;;;;;8.60;4.53;;;11.80;50.80;;;;;;5037382;28;20230;-49
2021/12/16 04:37:04;;;;;;;7.07;5.43;;;11.90;50.80;;;;;;5055044;28;20646;-49
2021/12/16 04:39:35;;;;;;;3.20;2.47;;;11.90;50.80;;;;;;5037446;28;20170;-49
2021/12/16 04:42:05;;;;;;;5.85;3.50;;;11.90;50.70;;;;;;5037661;28;20157;-49
2021/12/16 04:44:33;;;;;;;6.28;3.72;;;12.00;50.60;;;;;;5054207;28;20168;-49
2021/12/16 04:47:04;;;;;;;4.00;2.38;;;12.00;50.60;;;;;;5053932;28;20615;-49
2021/12/16 04:49:32;;;;;;;6.82;3.25;;;12.00;50.50;;;;;;5054670;28;20160;-49
2021/12/16 04:52:05;;;;;;;4.38;3.10;;;12.00;50.50;;;;;;5054221;28;20165;-49
2021/12/16 04:54:33;;;;;;;6.68;2.63;;;12.10;50.50;;;;;;5037715;28;20168;-49
2021/12/16 04:57:01;;;;;;;8.35;5.47;;;12.10;50.40;;;;;;5054600;28;20227;-49
2021/12/16 04:59:31;;;;;;;4.57;3.47;;;12.10;50.50;;;;;;5054478;28;20545;-49
2021/12/16 05:02:06;;;;;;;8.73;4.75;;;12.10;50.70;;;;;;5053553;28;20165;-49
2021/12/16 05:04:34;;;;;;;6.65;4.05;;;12.10;50.70;;;;;;5055231;28;20222;-49
2021/12/16 05:07:02;;;;;;;6.85;4.25;;;12.10;50.80;;;;;;5057715;28;20192;-48
2021/12/16 05:10:13;;;;;;;10.65;3.90;;;12.00;50.80;;;;;;5058312;28;20168;-49
2021/12/16 05:12:24;;;;;;;4.72;2.95;;;12.00;51.00;;;;;;5052045;28;20169;-49
2021/12/16 05:14:52;;;;;;;5.15;3.78;;;12.10;51.20;;;;;;5057712;28;20174;-49
2021/12/16 05:17:27;;;;;;;7.20;4.07;;;12.00;51.10;;;;;;5041104;28;20201;-49
2021/12/16 05:19:56;;;;;;;7.72;3.90;;;12.00;51.20;;;;;;5057393;28;20176;-48
2021/12/16 05:25:20;;;;;;;7.18;3.35;;;12.00;51.30;;;;;;5058390;28;20184;-49
2021/12/16 05:27:47;;;;;;;7.10;3.67;;;12.00;51.60;;;;;;5041675;28;20183;-48
2021/12/16 05:30:15;;;;;;;5.88;4.18;;;12.00;51.90;;;;;;5041192;28;20605;-48
2021/12/16 05:32:45;;;;;;;14.23;3.72;;;11.90;51.60;;;;;;5057010;28;20193;-49
2021/12/16 05:35:20;;;;;;;6.28;4.03;;;12.00;51.70;;;;;;5058077;28;20200;-48
2021/12/16 05:37:48;;;;;;;5.55;4.35;;;11.90;51.80;;;;;;5057964;28;20614;-48
2021/12/16 05:40:19;;;;;;;6.15;3.20;;;11.90;51.70;;;;;;5040624;28;20575;-49
2021/12/16 05:42:47;;;;;;;4.93;3.88;;;12.00;51.70;;;;;;5057809;28;20223;-49
2021/12/16 05:45:15;;;;;;;5.43;3.13;;;11.90;51.90;;;;;;5052258;28;20268;-48
2021/12/16 05:47:43;;;;;;;8.18;4.55;;;11.90;51.90;;;;;;5037643;28;20162;-48
2021/12/16 05:50:11;;;;;;;14.48;6.57;;;12.00;51.70;;;;;;5037768;28;20220;-48
2021/12/16 05:52:39;;;;;;;7.25;3.92;;;12.00;51.60;;;;;;5020651;28;20166;-48
2021/12/16 05:55:09;;;;;;;6.18;3.50;;;12.00;51.70;;;;;;5037566;28;20166;-48
2021/12/16 05:57:37;;;;;;;8.80;3.95;;;11.90;51.70;;;;;;5037562;28;20265;-48
2021/12/16 06:00:08;;;;;;;5.97;4.30;;;12.00;51.50;;;;;;5004154;28;20196;-49
2021/12/16 06:02:36;;;;;;;6.80;4.68;;;12.00;51.40;;;;;;5020391;28;20147;-48
2021/12/16 06:05:04;;;;;;;7.20;5.28;;;12.10;51.40;;;;;;5037582;28;20556;-49
2021/12/16 06:07:31;;;;;;;6.25;3.97;;;12.10;51.40;;;;;;5037498;28;20257;-49
2021/12/16 06:09:59;;;;;;;7.20;2.80;;;12.10;51.30;;;;;;5037504;28;20166;-48
2021/12/16 06:12:28;;;;;;;8.88;4.97;;;12.10;51.20;;;;;;5020012;28;20453;-48
2021/12/16 06:15:19;;;;;;;6.40;3.45;;;12.10;51.20;;;;;;5019448;28;20515;-48
2021/12/16 06:28:34;;;;;;;9.18;4.75;;;12.20;50.80;;;;;;5008871;28;20177;-48
2021/12/16 06:31:03;;;;;;;9.18;4.15;;;12.30;50.90;;;;;;5020204;28;20186;-49
2021/12/16 06:33:30;;;;;;;6.97;4.30;;;12.30;50.80;;;;;;5019763;28;20162;-48
2021/12/16 06:35:57;;;;;;;5.45;3.60;;;12.30;50.90;;;;;;5019798;28;20220;-49
2021/12/16 06:38:25;;;;;;;8.60;4.53;;;12.30;50.90;;;;;;5003336;28;20194;-48
2021/12/16 06:40:54;;;;;;;7.30;3.75;;;12.20;50.60;;;;;;5003301;28;20251;-48
2021/12/16 06:43:22;;;;;;;11.88;6.15;;;12.20;50.80;;;;;;5003798;28;20177;-48
2021/12/16 06:45:52;;;;;;;9.68;3.63;;;12.20;50.80;;;;;;5036526;28;20551;-49
2021/12/16 06:48:25;;;;;;;5.93;3.58;;;12.20;50.80;;;;;;5036408;28;20189;-48
2021/12/16 06:51:01;;;;;;;7.93;4.55;;;12.20;50.90;;;;;;5005131;28;20161;-49
2021/12/16 06:53:46;;;;;;;6.45;4.85;;;12.20;50.90;;;;;;4988993;28;20216;-49
2021/12/16 06:56:29;;;;;;;11.25;5.60;;;12.20;51.00;;;;;;5021460;28;20638;-49
2021/12/16 06:59:08;;;;;;;11.07;4.53;;;12.20;51.00;;;;;;5004657;28;20273;-49
2021/12/16 07:04:09;;;;;;;5.00;3.75;;;12.20;51.10;;;;;;5019145;28;20163;-49
2021/12/16 07:06:39;;;;;;;5.82;4.00;;;12.10;51.10;;;;;;5003593;28;20595;-49
2021/12/16 07:09:13;;;;;;;7.45;4.57;;;12.20;51.00;;;;;;5019056;28;20235;-49
2021/12/16 07:11:43;;;;;;;8.60;4.07;;;12.20;51.00;;;;;;5018743;28;20256;-49
2021/12/16 07:14:16;;;;;;;10.80;3.47;;;12.20;51.00;;;;;;5018929;28;20304;-49
2021/12/16 07:16:47;;;;;;;7.50;3.05;;;12.30;51.00;;;;;;5036476;28;20220;-49
2021/12/16 07:19:15;;;;;;;5.43;3.42;;;12.30;50.90;;;;;;5019256;28;20280;-49
2021/12/16 07:21:45;;;;;;;7.25;3.28;;;12.30;50.80;;;;;;5018478;28;20170;-49
2021/12/16 07:24:17;;;;;;;8.27;3.38;;;12.30;50.80;;;;;;5018496;28;20554;-49
2021/12/16 07:26:45;;;;;;;12.68;4.97;;;12.30;50.70;;;;;;5002282;28;20153;-49
2021/12/16 07:29:13;;;;;;;6.20;4.90;;;12.30;50.60;;;;;;5035807;28;20174;-49
2021/12/16 07:31:40;;;;;;;4.90;3.20;;;12.30;50.80;;;;;;5035941;28;20162;-49
2021/12/16 07:34:10;;;;;;;6.28;4.80;;;12.20;50.70;;;;;;5018426;28;20260;-49
2021/12/16 07:36:40;;;;;;;6.50;3.67;;;12.30;50.80;;;;;;5002621;28;20177;-49
2021/12/16 07:39:10;;;;;;;12.95;4.30;;;12.30;50.70;;;;;;5018664;28;20205;-49
2021/12/16 07:41:40;;;;;;;7.40;4.35;;;12.30;50.60;;;;;;5035785;28;20457;-49
2021/12/16 07:44:11;;;;;;;13.43;7.22;;;12.20;50.60;;;;;;5002878;28;20212;-48
2021/12/16 07:46:52;;;;;;;8.70;5.22;;;12.30;51.50;;;;;;5047989;28;20205;-48
2021/12/16 07:49:23;;;;;;;11.68;5.97;;;12.30;50.70;;;;;;5055532;28;20253;-49
2021/12/16 07:51:51;;;;;;;5.47;4.60;;;12.30;50.80;;;;;;5055337;28;20240;-49
2021/12/16 07:54:19;;;;;;;9.50;5.03;;;12.20;51.20;;;;;;5054603;28;20664;-49
2021/12/16 07:56:49;;;;;;;6.65;4.45;;;12.20;51.20;;;;;;5055247;28;20197;-49
2021/12/16 07:59:17;;;;;;;6.22;4.10;;;12.10;51.50;;;;;;5054253;28;20193;-49
2021/12/16 08:01:45;;;;;;;11.35;5.53;;;12.10;51.60;;;;;;5055158;28;20252;-49
2021/12/16 08:04:28;;;;;;;4.22;2.55;;;12.10;51.60;;;;;;5054388;28;20236;-49
2021/12/16 08:07:05;;;;;;;7.43;4.05;;;12.00;52.10;;;;;;5039948;28;20200;-49
2021/12/16 08:09:38;;;;;;;7.85;4.47;;;11.90;52.80;;;;;;5055172;28;20168;-49
2021/12/16 08:12:06;;;;;;;7.53;4.53;;;11.80;52.90;;;;;;5038238;28;20176;-49
2021/12/16 08:14:34;;;;;;;6.80;4.00;;;11.80;53.00;;;;;;5054164;28;20161;-49
2021/12/16 08:17:01;;;;;;;5.60;3.83;;;11.80;53.40;;;;;;5054084;28;20185;-48
2021/12/16 08:19:28;;;;;;;8.35;3.10;;;11.80;53.50;;;;;;5037772;28;20161;-49
2021/12/16 08:21:55;;;;;;;5.88;3.72;;;11.80;53.70;;;;;;5053954;28;20188;-49
2021/12/16 08:24:23;;;;;;;10.63;6.28;;;11.70;53.90;;;;;;5055097;28;20254;-49
2021/12/16 08:26:51;;;;;;;6.65;4.93;;;11.80;53.90;;;;;;5037553;28;20165;-48
2021/12/16 08:29:19;;;;;;;7.85;4.50;;;11.80;53.60;;;;;;5053813;28;20174;-49
2021/12/16 08:31:48;;;;;;;8.73;5.45;;;11.80;53.70;;;;;;5054675;28;20304;-49
2021/12/16 08:34:17;;;;;;;8.98;5.25;;;11.80;53.80;;;;;;5054657;28;20178;-49
2021/12/16 08:36:46;;;;;;;11.02;3.38;;;11.90;53.80;;;;;;5053604;28;20192;-49
2021/12/16 08:39:15;;;;;;;10.15;4.93;;;11.90;53.60;;;;;;5037462;28;20254;-49
2021/12/16 08:41:47;;;;;;;7.43;3.67;;;11.90;53.50;;;;;;5054677;28;20602;-48
2021/12/16 08:44:16;;;;;;;6.95;5.63;;;12.00;53.40;;;;;;5053904;28;20177;-49
2021/12/16 08:46:47;;;;;;;9.55;3.83;;;12.00;53.40;;;;;;5053364;28;20246;-49
2021/12/16 08:49:15;;;;;;;10.45;4.93;;;12.00;53.40;;;;;;5053864;28;20176;-49
2021/12/16 08:51:47;;;;;;;8.68;3.90;;;11.90;53.60;;;;;;5037084;28;20165;-49
2021/12/16 08:54:14;;;;;;;6.03;4.15;;;11.80;53.70;;;;;;5053946;28;20165;-49
2021/12/16 08:56:43;;;;;;;11.15;5.78;;;11.80;53.60;;;;;;5053742;28;20200;-49
2021/12/16 08:59:11;;;;;;;8.68;4.72;;;11.90;53.50;;;;;;5036961;28;20576;-49
2021/12/16 09:01:45;;;;;;;8.77;4.63;;;11.90;53.40;;;;;;5054426;28;20157;-49
2021/12/16 09:04:15;;;;;;;12.02;4.88;;;11.90;53.20;;;;;;5053889;28;20165;-49
2021/12/16 09:06:43;;;;;;;8.70;5.80;;;12.00;53.10;;;;;;5053633;28;20606;-48
2021/12/16 09:09:11;;;;;;;7.90;4.72;;;11.90;53.00;;;;;;5053667;28;20177;-49
2021/12/16 09:11:45;;;;;;;6.50;4.03;;;12.00;53.00;;;;;;5054457;28;20197;-49
2021/12/16 09:14:12;;;;;;;6.80;4.53;;;12.00;53.00;;;;;;5037719;28;20512;-48
2021/12/16 09:16:40;;;;;;;7.57;4.53;;;12.10;52.90;;;;;;5053759;28;20537;-49
2021/12/16 09:19:08;;;;;;;14.43;5.10;;;12.10;52.90;;;;;;5053163;28;20201;-49
2021/12/16 09:21:37;;;;;;;8.98;5.20;;;12.10;52.60;;;;;;5053713;28;20241;-49
2021/12/16 09:24:07;;;;;;;7.57;4.28;;;12.10;52.70;;;;;;5054340;28;20185;-49
2021/12/16 09:26:34;;;;;;;6.13;3.95;;;12.20;52.90;;;;;;5054348;28;20170;-49
2021/12/16 09:29:03;;;;;;;7.32;4.07;;;12.20;52.70;;;;;;5054167;28;20188;-49
2021/12/16 09:31:31;;;;;;;7.47;4.88;;;12.20;52.60;;;;;;5054205;28;20479;-49
2021/12/16 09:34:04;;;;;;;9.63;4.13;;;12.30;52.50;;;;;;5053253;28;20166;-49
2021/12/16 09:36:35;;;;;;;11.90;6.35;;;12.30;52.30;;;;;;5053258;28;20166;-48
2021/12/16 09:39:06;;;;;;;14.43;5.43;;;12.30;52.20;;;;;;5053139;28;20642;-48
2021/12/16 09:41:33;;;;;;;7.45;4.28;;;12.40;52.30;;;;;;5054281;28;20200;-49
2021/12/16 09:44:01;;;;;;;9.25;3.70;;;12.40;52.20;;;;;;5054398;28;20173;-48
2021/12/16 09:46:31;;;;;;;8.70;4.60;;;12.40;52.20;;;;;;5052933;28;20209;-49
2021/12/16 09:48:59;;;;;;;8.68;4.25;;;12.40;52.40;;;;;;5054005;28;20195;-48
2021/12/16 09:51:35;;;;;;;9.23;4.68;;;12.30;52.70;;;;;;5057082;28;20248;-50
2021/12/16 09:54:06;;;;;;;7.93;4.63;;;12.30;53.20;;;;;;5056692;28;20296;-49
2021/12/16 09:56:38;;;;;;;10.30;5.65;;;12.20;53.40;;;;;;5056910;28;20153;-49
2021/12/16 09:59:08;;;;;;;6.90;3.88;;;12.20;53.40;;;;;;5057378;28;20534;-49
2021/12/16 10:01:37;;;;;;;5.75;4.03;;;12.20;53.60;;;;;;5040006;28;20157;-49
2021/12/16 10:04:07;;;;;;;5.97;3.60;;;12.20;53.90;;;;;;5056561;28;20177;-49
2021/12/16 10:06:38;;;;;;;9.63;3.60;;;12.10;54.30;;;;;;5056981;28;20161;-48
2021/12/16 10:09:07;;;;;;;16.23;5.95;;;12.00;54.70;;;;;;5057346;28;20161;-48
2021/12/16 10:11:37;;;;;;;10.52;4.88;;;11.90;55.10;;;;;;5057382;28;20672;-49
2021/12/16 10:14:20;;;;;;;10.27;5.10;;;11.90;55.70;;;;;;5057311;28;20197;-49
2021/12/16 10:19:35;;;;;;;7.22;4.30;;;12.00;55.40;;;;;;5056650;28;20173;-49
2021/12/16 10:22:38;;;;;;;10.82;5.03;;;12.00;55.40;;;;;;5056145;28;20170;-49
2021/12/16 10:25:30;;;;;;;8.20;6.10;;;12.00;56.00;;;;;;5053367;28;20609;-49
2021/12/16 10:28:12;;;;;;;12.00;7.47;;;12.00;55.60;;;;;;5056325;28;20153;-49
2021/12/16 10:31:02;;;;;;;9.43;5.82;;;12.00;55.50;;;;;;5056915;28;20157;-49
2021/12/16 10:33:32;;;;;;;9.48;4.68;;;12.10;55.60;;;;;;5056072;28;20664;-50
2021/12/16 10:36:05;;;;;;;9.40;5.32;;;12.10;55.40;;;;;;5056975;28;20169;-48
2021/12/16 10:38:37;;;;;;;8.07;5.95;;;12.10;55.40;;;;;;5039750;28;20646;-50
2021/12/16 10:41:07;;;;;;;10.45;3.78;;;12.20;55.20;;;;;;5055819;28;20543;-49
2021/12/16 10:43:46;;;;;;;8.70;3.70;;;12.20;55.30;;;;;;5055678;28;20227;-49
2021/12/16 10:46:20;;;;;;;12.23;4.57;;;12.20;55.10;;;;;;5045602;28;20213;-50
2021/12/16 10:49:03;;;;;;;9.60;4.63;;;12.20;54.90;;;;;;5036628;28;20154;-49
2021/12/16 10:51:38;;;;;;;8.68;4.90;;;12.20;55.00;;;;;;5036592;28;20174;-49
2021/12/16 10:54:14;;;;;;;7.70;4.45;;;12.20;55.00;;;;;;5036171;28;20154;-49
2021/12/16 10:57:12;;;;;;;12.82;3.85;;;12.20;55.10;;;;;;5036441;28;20228;-49
2021/12/16 10:59:43;;;;;;;10.32;4.20;;;12.20;55.00;;;;;;5019034;28;20182;-49
2021/12/16 11:02:32;;;;;;;8.32;4.30;;;12.20;54.90;;;;;;5036394;28;20173;-49
2021/12/16 11:05:12;;;;;;;7.78;4.38;;;12.20;54.70;;;;;;5019331;28;20166;-49
2021/12/16 11:07:44;;;;;;;9.90;5.18;;;12.20;54.70;;;;;;5036295;28;20193;-49
2021/12/16 11:10:19;;;;;;;5.53;3.42;;;12.20;54.60;;;;;;5019377;28;20170;-49
2021/12/16 11:12:56;;;;;;;5.25;4.60;;;12.20;54.80;;;;;;5036251;28;20219;-49
2021/12/16 11:15:44;;;;;;;7.85;5.63;;;12.20;54.90;;;;;;5019424;28;20173;-50
2021/12/16 11:18:23;;;;;;;7.13;4.93;;;12.20;55.00;;;;;;5035977;28;20190;-49
2021/12/16 11:21:00;;;;;;;6.30;4.95;;;12.20;54.90;;;;;;5018944;28;20143;-50
2021/12/16 11:23:40;;;;;;;7.43;4.65;;;12.20;55.20;;;;;;5036374;28;20261;-49
2021/12/16 11:26:20;;;;;;;9.00;5.35;;;12.30;55.50;;;;;;5035790;28;20157;-49
2021/12/16 11:28:53;;;;;;;7.78;4.07;;;12.20;55.60;;;;;;5018425;28;20178;-50
2021/12/16 11:31:30;;;;;;;6.18;3.78;;;12.20;55.60;;;;;;5035757;28;20221;-49
2021/12/16 11:34:01;;;;;;;9.23;4.53;;;12.20;55.60;;;;;;5002692;28;20665;-49
2021/12/16 11:36:41;;;;;;;7.65;4.22;;;12.20;55.80;;;;;;5035732;28;20196;-49
2021/12/16 11:39:18;;;;;;;7.75;3.33;;;12.20;55.80;;;;;;5035845;28;20232;-49
2021/12/16 11:41:50;;;;;;;9.32;4.72;;;12.30;55.90;;;;;;5019653;28;20628;-49
2021/12/16 11:44:20;;;;;;;5.38;2.05;;;12.30;55.80;;;;;;5018368;28;20465;-49
2021/12/16 11:47:05;;;;;;;7.03;3.00;;;12.30;55.80;;;;;;5045558;28;20217;-49
2021/12/16 11:49:42;;;;;;;6.13;4.38;;;12.30;56.30;;;;;;5054800;28;20164;-49
2021/12/16 11:52:15;;;;;;;6.93;4.05;;;12.20;56.60;;;;;;5055641;28;20165;-50
2021/12/16 11:54:55;;;;;;;7.70;3.60;;;12.20;56.30;;;;;;5055322;28;20244;-50
2021/12/16 11:57:32;;;;;;;4.57;2.30;;;12.20;56.10;;;;;;5055427;28;20195;-49
2021/12/16 12:00:12;;;;;;;4.15;3.10;;;12.20;56.30;;;;;;5055404;28;20161;-50
2021/12/16 12:02:46;;;;;;;4.57;3.45;;;12.20;56.50;;;;;;5055188;28;20633;-49
2021/12/16 12:05:13;;;;;;;5.75;3.05;;;12.20;56.30;;;;;;5039203;28;20583;-51
2021/12/16 12:07:46;;;;;;;4.70;3.60;;;12.20;56.20;;;;;;5055540;28;20169;-50
2021/12/16 12:10:15;;;;;;;5.05;3.10;;;12.20;56.10;;;;;;5054207;28;20276;-49
2021/12/16 12:12:43;;;;;;;5.97;3.15;;;12.20;56.00;;;;;;5053644;28;20177;-49
2021/12/16 12:15:12;;;;;;;5.82;3.40;;;12.20;56.10;;;;;;5054071;28;20170;-49
2021/12/16 12:17:54;;;;;;;7.90;3.20;;;12.20;56.80;;;;;;5054966;28;20185;-49
2021/12/16 12:20:36;;;;;;;7.28;4.18;;;12.10;56.80;;;;;;5054157;28;20165;-49
2021/12/16 12:23:05;;;;;;;5.60;2.35;;;12.10;57.00;;;;;;5055088;28;20201;-49
2021/12/16 12:25:33;;;;;;;7.82;4.38;;;12.10;57.00;;;;;;5053774;28;20211;-49
2021/12/16 12:28:00;;;;;;;5.63;2.78;;;12.10;56.80;;;;;;5054989;28;20262;-49
2021/12/16 12:30:28;;;;;;;5.20;2.10;;;12.20;57.00;;;;;;5054972;28;20177;-49
2021/12/16 12:32:56;;;;;;;7.20;3.03;;;12.10;57.10;;;;;;5054927;28;20176;-49
2021/12/16 12:35:27;;;;;;;5.93;3.45;;;12.10;56.90;;;;;;5053792;28;20559;-49
2021/12/16 12:38:00;;;;;;;7.20;3.95;;;12.20;56.60;;;;;;5053766;28;20201;-49
2021/12/16 12:40:38;;;;;;;4.85;2.95;;;12.20;56.80;;;;;;5038372;28;20172;-49
2021/12/16 12:43:07;;;;;;;4.88;3.35;;;12.20;56.70;;;;;;5037882;28;20173;-50
2021/12/16 12:45:38;;;;;;;6.68;3.30;;;12.20;56.70;;;;;;5037218;28;20219;-49
2021/12/16 12:48:11;;;;;;;6.43;3.45;;;12.20;56.60;;;;;;5053936;28;20164;-49
2021/12/16 12:50:42;;;;;;;6.47;3.22;;;12.10;56.80;;;;;;5053845;28;20153;-49
2021/12/16 12:53:23;;;;;;;5.35;2.80;;;12.20;56.70;;;;;;5053800;28;20162;-49
2021/12/16 12:55:54;;;;;;;4.97;2.58;;;12.20;56.50;;;;;;5053864;28;20598;-50
2021/12/16 12:58:28;;;;;;;8.95;3.42;;;12.20;56.60;;;;;;5053642;28;20274;-49
2021/12/16 13:01:01;;;;;;;5.15;3.53;;;12.20;56.50;;;;;;5037862;28;20165;-49
2021/12/16 13:03:35;;;;;;;3.25;2.30;;;12.20;56.40;;;;;;5053605;28;20153;-49
2021/12/16 13:06:09;;;;;;;6.60;2.70;;;12.20;56.40;;;;;;5054317;28;20212;-49
2021/12/16 13:08:42;;;;;;;4.38;3.20;;;12.20;56.30;;;;;;5053612;28;20498;-49
2021/12/16 13:11:14;;;;;;;6.13;3.97;;;12.30;56.30;;;;;;5054408;28;20164;-49
2021/12/16 13:14:09;;;;;;;6.72;3.70;;;12.30;56.40;;;;;;5054636;28;20510;-49
2021/12/16 13:29:27;;;;;;;4.80;3.40;;;12.30;56.20;;;;;;5016730;28;20237;-49
2021/12/16 13:32:10;;;;;;;3.78;2.25;;;12.30;56.30;;;;;;5004053;28;20179;-49
2021/12/16 13:34:48;;;;;;;8.00;4.38;;;12.10;56.90;;;;;;4985441;28;20186;-49
2021/12/16 13:37:30;;;;;;;4.10;3.25;;;12.10;57.00;;;;;;5016446;28;20183;-49
2021/12/16 13:40:15;;;;;;;3.25;1.92;;;12.10;56.80;;;;;;5016479;28;20186;-48
2021/12/16 13:42:53;;;;;;;3.55;2.25;;;12.10;56.90;;;;;;5016595;28;20608;-49
2021/12/16 13:45:29;;;;;;;5.20;2.97;;;12.20;56.90;;;;;;5000204;28;20214;-49
2021/12/16 13:48:25;;;;;;;2.60;2.15;;;12.20;57.00;;;;;;5000666;28;20497;-48
2021/12/16 14:05:41;;;;;;;4.22;3.05;;;12.10;57.20;;;;;;5056607;28;20301;-49
2021/12/16 14:08:13;;;;;;;8.10;3.47;;;12.10;57.20;;;;;;5057635;28;20165;-49
2021/12/16 14:11:01;;;;;;;4.18;3.17;;;12.20;56.90;;;;;;5040285;28;20166;-49
2021/12/16 14:16:36;;;;;;;5.03;3.05;;;12.30;56.70;;;;;;5056473;28;20553;-49
2021/12/16 14:50:19;;;;;;;9.40;2.47;;;12.30;56.50;;;;;;5055728;28;20540;-48
2021/12/16 14:52:46;;;;;;;4.97;3.60;;;12.30;56.60;;;;;;5055646;28;20157;-49
2021/12/16 14:55:16;;;;;;;5.47;2.78;;;12.30;56.50;;;;;;5055705;28;20602;-49
2021/12/16 14:57:49;;;;;;;5.35;2.70;;;12.30;56.50;;;;;;5056361;28;20452;-49
2021/12/16 15:00:32;;;;;;;7.35;3.85;;;12.40;56.40;;;;;;5055635;28;20491;-49
2021/12/16 15:03:19;;;;;;;5.88;3.55;;;12.40;56.40;;;;;;5056426;28;20181;-49
2021/12/16 15:05:56;;;;;;;6.47;3.53;;;12.40;56.40;;;;;;5055444;28;20595;-49
2021/12/16 15:08:36;;;;;;;3.50;2.80;;;12.40;56.40;;;;;;5055487;28;20165;-49
2021/12/16 15:11:08;;;;;;;6.60;4.43;;;12.40;56.40;;;;;;5055198;28;20295;-49
2021/12/16 15:13:43;;;;;;;5.18;3.17;;;12.40;56.50;;;;;;5056403;28;20249;-49
2021/12/16 15:44:56;;;;;;;6.40;3.70;;;12.30;56.70;;;;;;5056067;28;20180;-49
2021/12/16 15:47:24;;;;;;;6.47;4.38;;;12.30;56.70;;;;;;5037378;28;20232;-49
2021/12/16 15:49:53;;;;;;;8.93;2.83;;;12.30;56.70;;;;;;5055116;28;20222;-48
2021/12/16 15:52:20;;;;;;;6.55;2.45;;;12.30;56.70;;;;;;5037748;28;20200;-49
2021/12/16 15:54:51;;;;;;;2.47;1.92;;;12.30;56.70;;;;;;5038050;28;20197;-49
2021/12/16 15:57:26;;;;;;;4.57;3.25;;;12.30;56.70;;;;;;5055209;28;20145;-49
2021/12/16 16:00:23;;;;;;;5.65;3.42;;;12.40;56.60;;;;;;5037810;28;20173;-49
2021/12/16 16:02:50;;;;;;;5.32;3.05;;;12.40;56.40;;;;;;5055278;28;20244;-49
2021/12/16 16:05:18;;;;;;;9.40;3.42;;;12.40;56.50;;;;;;5055308;28;20483;-49
2021/12/16 16:07:45;;;;;;;5.22;2.63;;;12.40;56.30;;;;;;5037981;28;20157;-49
2021/12/16 16:10:15;;;;;;;2.97;1.98;;;12.40;56.40;;;;;;5055230;28;20177;-49
2021/12/16 16:12:43;;;;;;;3.25;2.22;;;12.40;56.10;;;;;;5021943;28;20169;-49
2021/12/16 16:15:16;;;;;;;4.82;3.22;;;12.50;56.00;;;;;;5037735;28;20170;-49
2021/12/16 16:18:11;;;;;;;4.30;2.50;;;12.50;55.90;;;;;;5055197;28;20181;-49
2021/12/16 16:20:40;;;;;;;6.25;1.83;;;12.50;55.70;;;;;;5041453;28;20195;-49
2021/12/16 16:23:11;;;;;;;3.38;1.45;;;12.50;55.60;;;;;;5037477;28;20629;-49
2021/12/16 16:25:40;;;;;;;3.30;2.03;;;12.50;55.50;;;;;;5037948;28;20189;-49
2021/12/16 16:28:09;;;;;;;4.28;1.92;;;12.60;55.40;;;;;;5037627;28;20503;-49
2021/12/16 16:30:39;;;;;;;2.85;1.58;;;12.60;55.30;;;;;;5037371;28;20180;-49
2021/12/16 16:33:11;;;;;;;4.07;2.97;;;12.50;55.20;;;;;;5054680;28;20625;-49
2021/12/16 16:36:04;;;;;;;3.25;2.38;;;12.60;55.20;;;;;;5037782;28;20208;-49
2021/12/16 16:38:41;;;;;;;3.60;2.28;;;12.60;55.10;;;;;;5054486;28;20204;-49
2021/12/16 16:41:12;;;;;;;5.00;2.83;;;12.60;55.10;;;;;;5054701;28;20157;-49
2021/12/16 16:43:45;;;;;;;5.00;2.60;;;12.60;55.00;;;;;;5037758;28;20165;-50
2021/12/16 16:46:17;;;;;;;4.93;2.05;;;12.60;54.90;;;;;;5043823;28;20224;-49
2021/12/16 16:51:38;;;;;;;6.00;3.33;;;12.50;54.70;;;;;;5054754;28;20165;-49
2021/12/16 16:54:30;;;;;;;6.82;3.28;;;12.50;55.40;;;;;;5053914;28;20169;-49
2021/12/16 16:56:57;;;;;;;3.05;1.95;;;12.50;54.70;;;;;;5054536;28;20498;-49
2021/12/16 16:59:30;;;;;;;3.25;2.63;;;12.40;54.50;;;;;;5055951;28;20197;-49
2021/12/16 17:02:02;;;;;;;5.90;3.15;;;12.40;54.70;;;;;;5057996;28;20158;-49
2021/12/16 17:04:32;;;;;;;4.97;3.05;;;12.40;54.70;;;;;;5058146;28;20157;-49
2021/12/16 17:07:00;;;;;;;3.92;2.88;;;12.40;54.80;;;;;;5057789;28;20664;-49
2021/12/16 17:09:36;;;;;;;5.32;3.30;;;12.40;54.90;;;;;;5040914;28;20184;-49